sensor_id;sensor_type;location;lat;lon;timestamp;P1;durP1;ratioP1;P2;durP2;ratioP2
11486;SDS011;10510;47.942;9.442;2024-03-23T00:54:51;2.72;;;1.83;;
11486;SDS011;10510;47.942;9.442;2024-03-23T00:56:52;4.57;;;2.00;;
11486;SDS011;10510;47.942;9.442;2024-03-23T00:58:53;3.00;;;1.90;;
11486;SDS011;10510;47.942;9.442;2024-03-23T01:00:53;2.63;;;1.88;;
11486;SDS011;10510;47.942;9.442;2024-03-23T01:02:54;6.57;;;2.05;;
11486;SDS011;10510;47.942;9.442;2024-03-23T01:04:54;5.60;;;2.10;;
11486;SDS011;10510;47.942;9.442;2024-03-23T01:06:54;4.53;;;2.45;;
11486;SDS011;10510;47.942;9.442;2024-03-23T01:08:54;5.47;;;3.03;;
11486;SDS011;10510;47.942;9.442;2024-03-23T01:10:55;8.20;;;2.63;;
11486;SDS011;10510;47.942;9.442;2024-03-23T01:12:59;4.70;;;2.78;;
11486;SDS011;10510;47.942;9.442;2024-03-23T01:15:00;4.32;;;2.40;;
11486;SDS011;10510;47.942;9.442;2024-03-23T01:17:00;4.57;;;2.30;;
11486;SDS011;10510;47.942;9.442;2024-03-23T01:19:00;3.50;;;2.40;;
11486;SDS011;10510;47.942;9.442;2024-03-23T01:21:01;5.28;;;2.78;;
11486;SDS011;10510;47.942;9.442;2024-03-23T01:23:01;5.22;;;2.78;;
11486;SDS011;10510;47.942;9.442;2024-03-23T01:25:01;4.85;;;2.55;;
11486;SDS011;10510;47.942;9.442;2024-03-23T01:27:02;5.38;;;2.22;;
11486;SDS011;10510;47.942;9.442;2024-03-23T01:29:03;4.68;;;2.30;;
11486;SDS011;10510;47.942;9.442;2024-03-23T01:31:03;3.72;;;2.15;;
11486;SDS011;10510;47.942;9.442;2024-03-23T01:33:04;4.05;;;2.50;;
11486;SDS011;10510;47.942;9.442;2024-03-23T01:35:04;3.42;;;2.45;;
11486;SDS011;10510;47.942;9.442;2024-03-23T01:37:04;3.58;;;2.28;;
11486;SDS011;10510;47.942;9.442;2024-03-23T01:39:05;3.35;;;2.40;;
11486;SDS011;10510;47.942;9.442;2024-03-23T01:41:05;3.42;;;2.35;;
11486;SDS011;10510;47.942;9.442;2024-03-23T01:43:06;4.70;;;2.70;;
11486;SDS011;10510;47.942;9.442;2024-03-23T01:45:08;5.38;;;2.45;;
11486;SDS011;10510;47.942;9.442;2024-03-23T01:47:09;3.58;;;2.10;;
11486;SDS011;10510;47.942;9.442;2024-03-23T01:49:10;4.15;;;2.17;;
11486;SDS011;10510;47.942;9.442;2024-03-23T01:51:10;3.08;;;2.20;;
11486;SDS011;10510;47.942;9.442;2024-03-23T01:53:11;6.40;;;2.67;;
11486;SDS011;10510;47.942;9.442;2024-03-23T01:55:11;4.97;;;2.65;;
11486;SDS011;10510;47.942;9.442;2024-03-23T01:57:12;3.22;;;2.30;;
11486;SDS011;10510;47.942;9.442;2024-03-23T01:59:13;4.35;;;2.35;;
11486;SDS011;10510;47.942;9.442;2024-03-23T02:01:14;3.30;;;2.33;;
11486;SDS011;10510;47.942;9.442;2024-03-23T02:03:24;3.63;;;2.33;;
11486;SDS011;10510;47.942;9.442;2024-03-23T02:05:25;6.47;;;2.80;;
11486;SDS011;10510;47.942;9.442;2024-03-23T02:07:25;3.42;;;2.20;;
11486;SDS011;10510;47.942;9.442;2024-03-23T02:09:26;5.13;;;2.33;;
11486;SDS011;10510;47.942;9.442;2024-03-23T02:11:26;4.78;;;2.05;;
11486;SDS011;10510;47.942;9.442;2024-03-23T02:13:27;3.67;;;2.42;;
11486;SDS011;10510;47.942;9.442;2024-03-23T02:15:28;3.78;;;2.47;;
11486;SDS011;10510;47.942;9.442;2024-03-23T02:17:29;5.32;;;2.80;;
11486;SDS011;10510;47.942;9.442;2024-03-23T02:19:30;4.07;;;2.20;;
11486;SDS011;10510;47.942;9.442;2024-03-23T02:21:31;4.95;;;2.45;;
11486;SDS011;10510;47.942;9.442;2024-03-23T02:23:32;3.50;;;2.10;;
11486;SDS011;10510;47.942;9.442;2024-03-23T02:25:32;3.95;;;2.13;;
11486;SDS011;10510;47.942;9.442;2024-03-23T02:27:33;7.07;;;2.50;;
11486;SDS011;10510;47.942;9.442;2024-03-23T02:29:35;4.47;;;2.40;;
11486;SDS011;10510;47.942;9.442;2024-03-23T02:31:36;3.33;;;1.98;;
11486;SDS011;10510;47.942;9.442;2024-03-23T02:33:36;4.85;;;2.10;;
11486;SDS011;10510;47.942;9.442;2024-03-23T02:35:38;3.50;;;1.83;;
11486;SDS011;10510;47.942;9.442;2024-03-23T02:37:38;3.80;;;1.83;;
11486;SDS011;10510;47.942;9.442;2024-03-23T02:39:38;5.97;;;2.08;;
11486;SDS011;10510;47.942;9.442;2024-03-23T02:41:39;4.47;;;2.08;;
11486;SDS011;10510;47.942;9.442;2024-03-23T02:43:39;4.00;;;2.28;;
11486;SDS011;10510;47.942;9.442;2024-03-23T02:45:40;3.35;;;2.15;;
11486;SDS011;10510;47.942;9.442;2024-03-23T02:47:40;8.00;;;2.83;;
11486;SDS011;10510;47.942;9.442;2024-03-23T02:49:40;5.80;;;2.05;;
11486;SDS011;10510;47.942;9.442;2024-03-23T02:51:40;3.15;;;2.28;;
11486;SDS011;10510;47.942;9.442;2024-03-23T02:53:41;5.40;;;2.42;;
11486;SDS011;10510;47.942;9.442;2024-03-23T02:55:41;5.43;;;2.03;;
11486;SDS011;10510;47.942;9.442;2024-03-23T02:57:41;4.40;;;2.30;;
11486;SDS011;10510;47.942;9.442;2024-03-23T02:59:42;2.85;;;2.10;;
11486;SDS011;10510;47.942;9.442;2024-03-23T03:01:42;4.68;;;1.95;;
11486;SDS011;10510;47.942;9.442;2024-03-23T03:03:42;4.38;;;2.45;;
11486;SDS011;10510;47.942;9.442;2024-03-23T03:05:44;4.43;;;2.35;;
11486;SDS011;10510;47.942;9.442;2024-03-23T03:07:44;6.50;;;2.03;;
11486;SDS011;10510;47.942;9.442;2024-03-23T03:09:44;4.72;;;2.28;;
11486;SDS011;10510;47.942;9.442;2024-03-23T03:11:44;4.30;;;2.10;;
11486;SDS011;10510;47.942;9.442;2024-03-23T03:13:45;4.18;;;2.00;;
11486;SDS011;10510;47.942;9.442;2024-03-23T03:15:45;6.47;;;3.97;;
11486;SDS011;10510;47.942;9.442;2024-03-23T03:17:45;4.63;;;2.20;;
11486;SDS011;10510;47.942;9.442;2024-03-23T03:19:46;4.57;;;2.03;;
11486;SDS011;10510;47.942;9.442;2024-03-23T03:21:46;4.10;;;2.47;;
11486;SDS011;10510;47.942;9.442;2024-03-23T03:23:47;6.18;;;2.22;;
11486;SDS011;10510;47.942;9.442;2024-03-23T03:25:50;4.47;;;2.10;;
11486;SDS011;10510;47.942;9.442;2024-03-23T03:27:50;4.40;;;2.35;;
11486;SDS011;10510;47.942;9.442;2024-03-23T03:29:50;5.30;;;2.25;;
11486;SDS011;10510;47.942;9.442;2024-03-23T03:31:51;5.97;;;2.28;;
11486;SDS011;10510;47.942;9.442;2024-03-23T03:33:51;3.05;;;2.10;;
11486;SDS011;10510;47.942;9.442;2024-03-23T03:35:51;3.50;;;2.00;;
11486;SDS011;10510;47.942;9.442;2024-03-23T03:37:52;3.60;;;2.30;;
11486;SDS011;10510;47.942;9.442;2024-03-23T03:39:52;5.97;;;2.28;;
11486;SDS011;10510;47.942;9.442;2024-03-23T03:41:52;4.22;;;2.50;;
11486;SDS011;10510;47.942;9.442;2024-03-23T03:43:52;2.67;;;1.83;;
11486;SDS011;10510;47.942;9.442;2024-03-23T03:45:53;3.22;;;2.35;;
11486;SDS011;10510;47.942;9.442;2024-03-23T03:47:54;5.07;;;2.30;;
11486;SDS011;10510;47.942;9.442;2024-03-23T03:49:54;5.25;;;2.72;;
11486;SDS011;10510;47.942;9.442;2024-03-23T03:51:55;4.32;;;2.30;;
11486;SDS011;10510;47.942;9.442;2024-03-23T03:53:55;3.22;;;1.98;;
11486;SDS011;10510;47.942;9.442;2024-03-23T03:55:56;3.72;;;1.90;;
11486;SDS011;10510;47.942;9.442;2024-03-23T03:57:56;4.57;;;2.17;;
11486;SDS011;10510;47.942;9.442;2024-03-23T03:59:57;4.18;;;1.83;;
11486;SDS011;10510;47.942;9.442;2024-03-23T04:01:57;4.90;;;2.30;;
11486;SDS011;10510;47.942;9.442;2024-03-23T04:03:57;3.72;;;2.40;;
11486;SDS011;10510;47.942;9.442;2024-03-23T04:05:57;4.72;;;2.22;;
11486;SDS011;10510;47.942;9.442;2024-03-23T04:07:58;2.88;;;2.20;;
11486;SDS011;10510;47.942;9.442;2024-03-23T04:09:58;6.10;;;2.17;;
11486;SDS011;10510;47.942;9.442;2024-03-23T04:11:59;6.00;;;2.40;;
11486;SDS011;10510;47.942;9.442;2024-03-23T04:13:59;7.47;;;2.00;;
11486;SDS011;10510;47.942;9.442;2024-03-23T04:15:59;3.75;;;2.00;;
11486;SDS011;10510;47.942;9.442;2024-03-23T04:17:59;4.57;;;2.03;;
11486;SDS011;10510;47.942;9.442;2024-03-23T04:20:00;5.35;;;2.40;;
11486;SDS011;10510;47.942;9.442;2024-03-23T04:22:01;3.75;;;2.00;;
11486;SDS011;10510;47.942;9.442;2024-03-23T04:24:01;5.75;;;2.28;;
11486;SDS011;10510;47.942;9.442;2024-03-23T04:26:03;3.60;;;2.35;;
11486;SDS011;10510;47.942;9.442;2024-03-23T04:28:04;3.50;;;2.05;;
11486;SDS011;10510;47.942;9.442;2024-03-23T04:30:05;5.53;;;2.78;;
11486;SDS011;10510;47.942;9.442;2024-03-23T04:32:10;4.00;;;2.35;;
11486;SDS011;10510;47.942;9.442;2024-03-23T04:34:10;5.03;;;2.67;;
11486;SDS011;10510;47.942;9.442;2024-03-23T04:36:10;5.88;;;2.50;;
11486;SDS011;10510;47.942;9.442;2024-03-23T04:38:11;5.65;;;2.33;;
11486;SDS011;10510;47.942;9.442;2024-03-23T04:40:11;3.95;;;2.05;;
11486;SDS011;10510;47.942;9.442;2024-03-23T04:42:14;5.20;;;2.30;;
11486;SDS011;10510;47.942;9.442;2024-03-23T04:44:16;5.43;;;2.35;;
11486;SDS011;10510;47.942;9.442;2024-03-23T04:46:16;7.55;;;2.22;;
11486;SDS011;10510;47.942;9.442;2024-03-23T04:48:16;3.75;;;2.50;;
11486;SDS011;10510;47.942;9.442;2024-03-23T04:50:17;4.30;;;2.80;;
11486;SDS011;10510;47.942;9.442;2024-03-23T04:52:18;3.47;;;2.58;;
11486;SDS011;10510;47.942;9.442;2024-03-23T04:54:18;5.15;;;2.67;;
11486;SDS011;10510;47.942;9.442;2024-03-23T04:56:19;4.25;;;2.05;;
11486;SDS011;10510;47.942;9.442;2024-03-23T04:58:19;6.68;;;2.63;;
11486;SDS011;10510;47.942;9.442;2024-03-23T05:00:19;3.92;;;2.63;;
11486;SDS011;10510;47.942;9.442;2024-03-23T05:02:19;5.13;;;2.65;;
11486;SDS011;10510;47.942;9.442;2024-03-23T05:04:20;8.60;;;3.03;;
11486;SDS011;10510;47.942;9.442;2024-03-23T05:06:20;6.45;;;2.47;;
11486;SDS011;10510;47.942;9.442;2024-03-23T05:08:20;4.13;;;2.60;;
11486;SDS011;10510;47.942;9.442;2024-03-23T05:10:21;5.30;;;2.72;;
11486;SDS011;10510;47.942;9.442;2024-03-23T05:12:21;4.40;;;2.47;;
11486;SDS011;10510;47.942;9.442;2024-03-23T05:14:21;5.50;;;2.75;;
11486;SDS011;10510;47.942;9.442;2024-03-23T05:16:22;5.18;;;2.72;;
11486;SDS011;10510;47.942;9.442;2024-03-23T05:18:22;4.95;;;2.70;;
11486;SDS011;10510;47.942;9.442;2024-03-23T05:20:26;8.23;;;2.50;;
11486;SDS011;10510;47.942;9.442;2024-03-23T05:22:27;3.85;;;2.20;;
11486;SDS011;10510;47.942;9.442;2024-03-23T05:24:27;3.60;;;2.25;;
11486;SDS011;10510;47.942;9.442;2024-03-23T05:26:28;5.30;;;2.65;;
11486;SDS011;10510;47.942;9.442;2024-03-23T05:28:29;3.15;;;2.22;;
11486;SDS011;10510;47.942;9.442;2024-03-23T05:30:29;5.80;;;2.50;;
11486;SDS011;10510;47.942;9.442;2024-03-23T05:32:29;4.38;;;2.15;;
11486;SDS011;10510;47.942;9.442;2024-03-23T05:34:30;4.75;;;2.40;;
11486;SDS011;10510;47.942;9.442;2024-03-23T05:36:30;3.70;;;2.30;;
11486;SDS011;10510;47.942;9.442;2024-03-23T05:38:32;5.60;;;2.45;;
11486;SDS011;10510;47.942;9.442;2024-03-23T05:40:32;3.95;;;2.38;;
11486;SDS011;10510;47.942;9.442;2024-03-23T05:42:37;5.38;;;2.38;;
11486;SDS011;10510;47.942;9.442;2024-03-23T05:44:37;4.65;;;2.30;;
11486;SDS011;10510;47.942;9.442;2024-03-23T05:46:38;4.95;;;2.35;;
11486;SDS011;10510;47.942;9.442;2024-03-23T05:48:38;5.88;;;2.63;;
11486;SDS011;10510;47.942;9.442;2024-03-23T05:50:39;6.53;;;2.67;;
11486;SDS011;10510;47.942;9.442;2024-03-23T05:52:39;7.90;;;3.47;;
11486;SDS011;10510;47.942;9.442;2024-03-23T05:54:39;6.00;;;3.10;;
11486;SDS011;10510;47.942;9.442;2024-03-23T05:56:40;5.80;;;3.38;;
11486;SDS011;10510;47.942;9.442;2024-03-23T05:58:40;6.50;;;2.75;;
11486;SDS011;10510;47.942;9.442;2024-03-23T06:00:40;6.47;;;3.90;;
11486;SDS011;10510;47.942;9.442;2024-03-23T06:02:42;4.32;;;2.90;;
11486;SDS011;10510;47.942;9.442;2024-03-23T06:04:45;6.78;;;3.42;;
11486;SDS011;10510;47.942;9.442;2024-03-23T06:06:46;5.55;;;3.05;;
11486;SDS011;10510;47.942;9.442;2024-03-23T06:08:46;4.20;;;2.80;;
11486;SDS011;10510;47.942;9.442;2024-03-23T06:10:47;4.90;;;3.20;;
11486;SDS011;10510;47.942;9.442;2024-03-23T06:12:47;4.75;;;3.25;;
11486;SDS011;10510;47.942;9.442;2024-03-23T06:14:49;4.70;;;2.83;;
11486;SDS011;10510;47.942;9.442;2024-03-23T06:16:49;5.43;;;3.22;;
11486;SDS011;10510;47.942;9.442;2024-03-23T06:18:50;4.40;;;2.80;;
11486;SDS011;10510;47.942;9.442;2024-03-23T06:20:51;4.20;;;2.40;;
11486;SDS011;10510;47.942;9.442;2024-03-23T06:22:51;7.57;;;3.30;;
11486;SDS011;10510;47.942;9.442;2024-03-23T06:24:51;6.82;;;3.42;;
11486;SDS011;10510;47.942;9.442;2024-03-23T06:26:51;6.55;;;2.58;;
11486;SDS011;10510;47.942;9.442;2024-03-23T06:28:52;7.28;;;3.03;;
11486;SDS011;10510;47.942;9.442;2024-03-23T06:30:52;5.95;;;2.63;;
11486;SDS011;10510;47.942;9.442;2024-03-23T06:32:52;4.45;;;2.67;;
11486;SDS011;10510;47.942;9.442;2024-03-23T06:34:53;11.18;;;6.03;;
11486;SDS011;10510;47.942;9.442;2024-03-23T06:36:53;6.00;;;2.72;;
11486;SDS011;10510;47.942;9.442;2024-03-23T06:38:54;5.60;;;3.00;;
11486;SDS011;10510;47.942;9.442;2024-03-23T06:40:54;5.55;;;2.83;;
11486;SDS011;10510;47.942;9.442;2024-03-23T06:42:54;7.70;;;3.72;;
11486;SDS011;10510;47.942;9.442;2024-03-23T06:44:54;11.13;;;5.70;;
11486;SDS011;10510;47.942;9.442;2024-03-23T06:46:55;6.47;;;3.55;;
11486;SDS011;10510;47.942;9.442;2024-03-23T06:48:56;6.32;;;3.78;;
11486;SDS011;10510;47.942;9.442;2024-03-23T06:50:56;6.43;;;3.67;;
11486;SDS011;10510;47.942;9.442;2024-03-23T06:52:57;6.20;;;3.95;;
11486;SDS011;10510;47.942;9.442;2024-03-23T06:54:57;6.22;;;3.70;;
11486;SDS011;10510;47.942;9.442;2024-03-23T06:56:58;8.98;;;4.15;;
11486;SDS011;10510;47.942;9.442;2024-03-23T06:58:59;6.28;;;3.70;;
11486;SDS011;10510;47.942;9.442;2024-03-23T07:00:59;8.25;;;3.92;;
11486;SDS011;10510;47.942;9.442;2024-03-23T07:02:59;7.25;;;4.25;;
11486;SDS011;10510;47.942;9.442;2024-03-23T07:05:00;8.25;;;4.18;;
11486;SDS011;10510;47.942;9.442;2024-03-23T07:07:00;8.40;;;3.97;;
11486;SDS011;10510;47.942;9.442;2024-03-23T07:09:01;7.57;;;3.67;;
11486;SDS011;10510;47.942;9.442;2024-03-23T07:11:01;8.07;;;4.55;;
11486;SDS011;10510;47.942;9.442;2024-03-23T07:13:02;10.85;;;5.57;;
11486;SDS011;10510;47.942;9.442;2024-03-23T07:15:03;9.02;;;4.65;;
11486;SDS011;10510;47.942;9.442;2024-03-23T07:17:03;6.82;;;4.28;;
11486;SDS011;10510;47.942;9.442;2024-03-23T07:19:04;7.50;;;4.45;;
11486;SDS011;10510;47.942;9.442;2024-03-23T07:21:04;7.55;;;3.80;;
11486;SDS011;10510;47.942;9.442;2024-03-23T07:23:06;7.80;;;4.38;;
11486;SDS011;10510;47.942;9.442;2024-03-23T07:25:07;8.23;;;5.03;;
11486;SDS011;10510;47.942;9.442;2024-03-23T07:27:07;8.25;;;4.63;;
11486;SDS011;10510;47.942;9.442;2024-03-23T07:29:10;5.75;;;3.80;;
11486;SDS011;10510;47.942;9.442;2024-03-23T07:31:10;5.40;;;3.60;;
11486;SDS011;10510;47.942;9.442;2024-03-23T07:33:12;6.22;;;3.78;;
11486;SDS011;10510;47.942;9.442;2024-03-23T07:35:12;10.68;;;6.03;;
11486;SDS011;10510;47.942;9.442;2024-03-23T07:37:12;8.40;;;4.10;;
11486;SDS011;10510;47.942;9.442;2024-03-23T07:39:13;5.85;;;4.07;;
11486;SDS011;10510;47.942;9.442;2024-03-23T07:41:17;7.72;;;5.20;;
11486;SDS011;10510;47.942;9.442;2024-03-23T07:43:19;5.93;;;3.67;;
11486;SDS011;10510;47.942;9.442;2024-03-23T07:45:19;6.90;;;4.18;;
11486;SDS011;10510;47.942;9.442;2024-03-23T07:47:20;7.38;;;4.30;;
11486;SDS011;10510;47.942;9.442;2024-03-23T07:49:20;7.55;;;4.40;;
11486;SDS011;10510;47.942;9.442;2024-03-23T07:51:21;6.15;;;3.70;;
11486;SDS011;10510;47.942;9.442;2024-03-23T07:53:22;5.55;;;3.33;;
11486;SDS011;10510;47.942;9.442;2024-03-23T07:55:23;7.35;;;3.63;;
11486;SDS011;10510;47.942;9.442;2024-03-23T07:57:23;7.85;;;3.97;;
11486;SDS011;10510;47.942;9.442;2024-03-23T07:59:23;7.88;;;3.95;;
11486;SDS011;10510;47.942;9.442;2024-03-23T08:01:23;5.70;;;3.53;;
11486;SDS011;10510;47.942;9.442;2024-03-23T08:03:24;7.43;;;3.50;;
11486;SDS011;10510;47.942;9.442;2024-03-23T08:05:25;5.63;;;3.35;;
11486;SDS011;10510;47.942;9.442;2024-03-23T08:07:26;6.65;;;3.92;;
11486;SDS011;10510;47.942;9.442;2024-03-23T08:09:26;6.57;;;3.10;;
11486;SDS011;10510;47.942;9.442;2024-03-23T08:11:27;4.55;;;2.63;;
11486;SDS011;10510;47.942;9.442;2024-03-23T08:13:31;3.63;;;2.17;;
11486;SDS011;10510;47.942;9.442;2024-03-23T08:15:31;5.47;;;2.80;;
11486;SDS011;10510;47.942;9.442;2024-03-23T08:17:33;6.32;;;1.88;;
11486;SDS011;10510;47.942;9.442;2024-03-23T08:19:33;3.78;;;1.90;;
11486;SDS011;10510;47.942;9.442;2024-03-23T08:21:33;2.35;;;1.50;;
11486;SDS011;10510;47.942;9.442;2024-03-23T08:23:34;4.85;;;1.95;;
11486;SDS011;10510;47.942;9.442;2024-03-23T08:25:38;3.08;;;1.90;;
11486;SDS011;10510;47.942;9.442;2024-03-23T08:27:38;4.85;;;1.42;;
11486;SDS011;10510;47.942;9.442;2024-03-23T08:29:38;2.97;;;1.45;;
11486;SDS011;10510;47.942;9.442;2024-03-23T08:31:39;3.92;;;1.77;;
11486;SDS011;10510;47.942;9.442;2024-03-23T08:33:39;3.42;;;1.50;;
11486;SDS011;10510;47.942;9.442;2024-03-23T08:35:39;3.35;;;1.15;;
11486;SDS011;10510;47.942;9.442;2024-03-23T08:37:40;1.30;;;0.70;;
11486;SDS011;10510;47.942;9.442;2024-03-23T08:39:41;2.65;;;0.93;;
11486;SDS011;10510;47.942;9.442;2024-03-23T08:41:43;5.65;;;1.25;;
11486;SDS011;10510;47.942;9.442;2024-03-23T08:43:46;3.10;;;1.75;;
11486;SDS011;10510;47.942;9.442;2024-03-23T08:45:46;0.60;;;0.50;;
11486;SDS011;10510;47.942;9.442;2024-03-23T08:47:46;2.38;;;1.33;;
11486;SDS011;10510;47.942;9.442;2024-03-23T08:49:47;8.45;;;4.82;;
11486;SDS011;10510;47.942;9.442;2024-03-23T08:51:47;2.65;;;1.80;;
11486;SDS011;10510;47.942;9.442;2024-03-23T08:53:47;2.55;;;1.20;;
11486;SDS011;10510;47.942;9.442;2024-03-23T08:55:54;0.90;;;0.75;;
11486;SDS011;10510;47.942;9.442;2024-03-23T08:57:55;1.40;;;0.70;;
11486;SDS011;10510;47.942;9.442;2024-03-23T08:59:56;1.17;;;0.70;;
11486;SDS011;10510;47.942;9.442;2024-03-23T09:01:56;1.40;;;0.93;;
11486;SDS011;10510;47.942;9.442;2024-03-23T09:03:56;2.13;;;1.02;;
11486;SDS011;10510;47.942;9.442;2024-03-23T09:05:56;5.25;;;0.90;;
11486;SDS011;10510;47.942;9.442;2024-03-23T09:07:58;1.00;;;0.70;;
11486;SDS011;10510;47.942;9.442;2024-03-23T09:09:58;1.20;;;0.88;;
11486;SDS011;10510;47.942;9.442;2024-03-23T09:11:58;1.13;;;0.68;;
11486;SDS011;10510;47.942;9.442;2024-03-23T09:13:59;0.75;;;0.65;;
11486;SDS011;10510;47.942;9.442;2024-03-23T09:15:59;1.60;;;1.10;;
11486;SDS011;10510;47.942;9.442;2024-03-23T09:18:00;1.27;;;0.80;;
11486;SDS011;10510;47.942;9.442;2024-03-23T09:20:00;0.55;;;0.50;;
11486;SDS011;10510;47.942;9.442;2024-03-23T09:22:00;1.75;;;0.60;;
11486;SDS011;10510;47.942;9.442;2024-03-23T09:24:01;2.70;;;0.65;;
11486;SDS011;10510;47.942;9.442;2024-03-23T09:26:04;2.92;;;1.15;;
11486;SDS011;10510;47.942;9.442;2024-03-23T09:28:07;0.52;;;0.35;;
11486;SDS011;10510;47.942;9.442;2024-03-23T09:30:10;1.27;;;0.70;;
11486;SDS011;10510;47.942;9.442;2024-03-23T09:32:11;1.00;;;0.40;;
11486;SDS011;10510;47.942;9.442;2024-03-23T09:34:12;1.02;;;0.50;;
11486;SDS011;10510;47.942;9.442;2024-03-23T09:36:12;0.80;;;0.52;;
11486;SDS011;10510;47.942;9.442;2024-03-23T09:38:12;1.55;;;0.50;;
11486;SDS011;10510;47.942;9.442;2024-03-23T09:40:12;1.10;;;0.50;;
11486;SDS011;10510;47.942;9.442;2024-03-23T09:42:13;1.08;;;0.50;;
11486;SDS011;10510;47.942;9.442;2024-03-23T09:44:14;0.68;;;0.52;;
11486;SDS011;10510;47.942;9.442;2024-03-23T09:46:15;1.60;;;0.77;;
11486;SDS011;10510;47.942;9.442;2024-03-23T09:48:15;0.68;;;0.60;;
11486;SDS011;10510;47.942;9.442;2024-03-23T09:50:16;0.80;;;0.50;;
11486;SDS011;10510;47.942;9.442;2024-03-23T09:52:16;9.30;;;3.15;;
11486;SDS011;10510;47.942;9.442;2024-03-23T09:54:17;6.18;;;2.03;;
11486;SDS011;10510;47.942;9.442;2024-03-23T09:56:17;2.28;;;0.90;;
11486;SDS011;10510;47.942;9.442;2024-03-23T09:58:18;1.42;;;0.73;;
11486;SDS011;10510;47.942;9.442;2024-03-23T10:00:18;0.95;;;0.60;;
11486;SDS011;10510;47.942;9.442;2024-03-23T10:02:19;1.60;;;1.02;;
11486;SDS011;10510;47.942;9.442;2024-03-23T10:04:36;1.50;;;0.93;;
11486;SDS011;10510;47.942;9.442;2024-03-23T10:06:37;4.83;;;1.37;;
11486;SDS011;10510;47.942;9.442;2024-03-23T10:08:37;2.13;;;1.25;;
11486;SDS011;10510;47.942;9.442;2024-03-23T10:10:38;2.72;;;1.13;;
11486;SDS011;10510;47.942;9.442;2024-03-23T10:12:43;3.70;;;1.20;;
11486;SDS011;10510;47.942;9.442;2024-03-23T10:14:47;2.80;;;1.00;;
11486;SDS011;10510;47.942;9.442;2024-03-23T10:16:47;1.77;;;1.08;;
11486;SDS011;10510;47.942;9.442;2024-03-23T10:18:47;2.33;;;0.90;;
11486;SDS011;10510;47.942;9.442;2024-03-23T10:20:50;3.85;;;1.13;;
11486;SDS011;10510;47.942;9.442;2024-03-23T10:22:52;3.63;;;1.25;;
11486;SDS011;10510;47.942;9.442;2024-03-23T10:24:52;6.65;;;1.30;;
11486;SDS011;10510;47.942;9.442;2024-03-23T10:26:56;3.95;;;1.60;;
11486;SDS011;10510;47.942;9.442;2024-03-23T10:29:00;3.10;;;1.65;;
11486;SDS011;10510;47.942;9.442;2024-03-23T10:31:10;3.35;;;1.20;;
11486;SDS011;10510;47.942;9.442;2024-03-23T10:33:12;2.33;;;1.15;;
11486;SDS011;10510;47.942;9.442;2024-03-23T10:35:14;5.95;;;1.30;;
11486;SDS011;10510;47.942;9.442;2024-03-23T10:37:15;5.82;;;1.35;;
11486;SDS011;10510;47.942;9.442;2024-03-23T10:39:16;2.55;;;1.50;;
11486;SDS011;10510;47.942;9.442;2024-03-23T10:41:17;3.08;;;1.83;;
11486;SDS011;10510;47.942;9.442;2024-03-23T10:43:18;3.53;;;1.65;;
11486;SDS011;10510;47.942;9.442;2024-03-23T10:45:19;8.60;;;2.42;;
11486;SDS011;10510;47.942;9.442;2024-03-23T10:47:20;6.93;;;1.77;;
11486;SDS011;10510;47.942;9.442;2024-03-23T10:49:20;1.50;;;1.27;;
11486;SDS011;10510;47.942;9.442;2024-03-23T10:51:21;2.60;;;1.48;;
11486;SDS011;10510;47.942;9.442;2024-03-23T10:53:27;5.93;;;1.88;;
11486;SDS011;10510;47.942;9.442;2024-03-23T10:55:28;8.10;;;3.43;;
11486;SDS011;10510;47.942;9.442;2024-03-23T10:57:31;3.55;;;1.65;;
11486;SDS011;10510;47.942;9.442;2024-03-23T10:59:36;5.53;;;2.07;;
11486;SDS011;10510;47.942;9.442;2024-03-23T11:01:54;7.20;;;2.70;;
11486;SDS011;10510;47.942;9.442;2024-03-23T11:03:58;3.40;;;1.70;;
11486;SDS011;10510;47.942;9.442;2024-03-23T11:05:59;4.68;;;1.92;;
11486;SDS011;10510;47.942;9.442;2024-03-23T11:08:00;3.20;;;1.65;;
11486;SDS011;10510;47.942;9.442;2024-03-23T11:10:00;7.30;;;3.05;;
11486;SDS011;10510;47.942;9.442;2024-03-23T11:14:22;4.80;;;2.30;;
11486;SDS011;10510;47.942;9.442;2024-03-23T11:16:26;8.07;;;3.50;;
11486;SDS011;10510;47.942;9.442;2024-03-23T11:18:35;6.93;;;2.13;;
11486;SDS011;10510;47.942;9.442;2024-03-23T11:20:35;5.45;;;1.88;;
11486;SDS011;10510;47.942;9.442;2024-03-23T11:24:49;4.20;;;1.60;;
11486;SDS011;10510;47.942;9.442;2024-03-23T11:26:50;3.13;;;1.85;;
11486;SDS011;10510;47.942;9.442;2024-03-23T11:28:50;3.67;;;1.70;;
11486;SDS011;10510;47.942;9.442;2024-03-23T11:31:09;5.85;;;2.13;;
11486;SDS011;10510;47.942;9.442;2024-03-23T11:33:10;4.35;;;1.70;;
11486;SDS011;10510;47.942;9.442;2024-03-23T11:35:24;3.13;;;1.80;;
11486;SDS011;10510;47.942;9.442;2024-03-23T11:37:34;8.95;;;2.55;;
11486;SDS011;10510;47.942;9.442;2024-03-23T11:39:34;7.32;;;1.70;;
11486;SDS011;10510;47.942;9.442;2024-03-23T11:41:34;6.97;;;1.92;;
11486;SDS011;10510;47.942;9.442;2024-03-23T11:43:35;3.53;;;1.83;;
11486;SDS011;10510;47.942;9.442;2024-03-23T11:45:36;2.92;;;1.20;;
11486;SDS011;10510;47.942;9.442;2024-03-23T11:47:43;4.40;;;1.63;;
11486;SDS011;10510;47.942;9.442;2024-03-23T11:49:43;4.75;;;1.52;;
11486;SDS011;10510;47.942;9.442;2024-03-23T11:51:44;2.85;;;1.27;;
11486;SDS011;10510;47.942;9.442;2024-03-23T11:53:44;1.85;;;1.13;;
11486;SDS011;10510;47.942;9.442;2024-03-23T11:57:55;6.50;;;1.17;;
11486;SDS011;10510;47.942;9.442;2024-03-23T11:59:55;4.30;;;1.88;;
11486;SDS011;10510;47.942;9.442;2024-03-23T12:01:56;1.73;;;1.27;;
11486;SDS011;10510;47.942;9.442;2024-03-23T12:03:56;3.30;;;1.35;;
11486;SDS011;10510;47.942;9.442;2024-03-23T12:06:01;5.22;;;1.73;;
11486;SDS011;10510;47.942;9.442;2024-03-23T12:10:19;4.72;;;1.65;;
11486;SDS011;10510;47.942;9.442;2024-03-23T12:12:22;3.17;;;1.25;;
11486;SDS011;10510;47.942;9.442;2024-03-23T12:14:23;3.88;;;1.40;;
11486;SDS011;10510;47.942;9.442;2024-03-23T12:16:24;3.90;;;1.38;;
11486;SDS011;10510;47.942;9.442;2024-03-23T12:18:27;3.97;;;1.05;;
11486;SDS011;10510;47.942;9.442;2024-03-23T12:20:27;5.18;;;1.25;;
11486;SDS011;10510;47.942;9.442;2024-03-23T12:22:28;5.20;;;2.00;;
11486;SDS011;10510;47.942;9.442;2024-03-23T12:24:32;5.25;;;1.50;;
11486;SDS011;10510;47.942;9.442;2024-03-23T12:26:36;5.53;;;1.42;;
11486;SDS011;10510;47.942;9.442;2024-03-23T12:28:37;2.40;;;1.05;;
11486;SDS011;10510;47.942;9.442;2024-03-23T12:30:38;3.90;;;1.00;;
11486;SDS011;10510;47.942;9.442;2024-03-23T12:32:40;8.15;;;2.22;;
11486;SDS011;10510;47.942;9.442;2024-03-23T12:34:40;4.70;;;1.30;;
11486;SDS011;10510;47.942;9.442;2024-03-23T12:36:41;4.75;;;1.30;;
11486;SDS011;10510;47.942;9.442;2024-03-23T12:38:41;6.38;;;1.67;;
11486;SDS011;10510;47.942;9.442;2024-03-23T12:40:46;5.50;;;1.42;;
11486;SDS011;10510;47.942;9.442;2024-03-23T12:42:48;6.70;;;1.70;;
11486;SDS011;10510;47.942;9.442;2024-03-23T12:44:48;10.30;;;2.40;;
11486;SDS011;10510;47.942;9.442;2024-03-23T12:46:49;3.00;;;1.10;;
11486;SDS011;10510;47.942;9.442;2024-03-23T12:48:50;3.35;;;1.17;;
11486;SDS011;10510;47.942;9.442;2024-03-23T12:50:54;4.32;;;1.27;;
11486;SDS011;10510;47.942;9.442;2024-03-23T12:52:54;3.35;;;0.88;;
11486;SDS011;10510;47.942;9.442;2024-03-23T12:54:55;2.58;;;1.10;;
11486;SDS011;10510;47.942;9.442;2024-03-23T12:56:56;2.25;;;0.73;;
11486;SDS011;10510;47.942;9.442;2024-03-23T12:58:56;1.70;;;0.98;;
11486;SDS011;10510;47.942;9.442;2024-03-23T13:00:58;3.17;;;1.13;;
11486;SDS011;10510;47.942;9.442;2024-03-23T13:02:58;2.67;;;0.85;;
11486;SDS011;10510;47.942;9.442;2024-03-23T13:04:59;3.30;;;0.90;;
11486;SDS011;10510;47.942;9.442;2024-03-23T13:06:59;2.75;;;1.15;;
11486;SDS011;10510;47.942;9.442;2024-03-23T13:09:02;4.35;;;1.15;;
11486;SDS011;10510;47.942;9.442;2024-03-23T13:11:03;5.65;;;2.15;;
11486;SDS011;10510;47.942;9.442;2024-03-23T13:13:03;3.75;;;1.55;;